Time;durP1;ratioP1;P1;durP2;ratioP2;P2;SDS_P1;SDS_P2;PMS_P1;PMS_P2;Temp;Humidity;BMP_temperature;BMP_pressure;BME280_temperature;BME280_humidity;BME280_pressure;Samples;Min_cycle;Max_cycle;Signal;HPM_P1;HPM_P2
2020/12/23 00:00:46;;;;;;;5.72;5.40;;;;;;;;;;6211283;23;20077;-82
2020/12/23 00:03:12;;;;;;;1.90;0.88;;;;;;;;;;6184405;23;20318;-81
2020/12/23 00:05:38;;;;;;;2.10;1.10;;;;;;;;;;6211190;23;20024;-82
2020/12/23 00:08:04;;;;;;;1.00;0.70;;;;;;;;;;6210424;23;20013;-81
2020/12/23 00:10:31;;;;;;;2.15;0.90;;;;;;;;;;6211108;23;20266;-82
2020/12/23 00:12:57;;;;;;;1.90;0.93;;;;;;;;;;6210371;23;20504;-82
2020/12/23 00:15:23;;;;;;;1.27;0.80;;;;;;;;;;6210442;23;20113;-81
2020/12/23 00:17:49;;;;;;;1.00;0.70;;;;;;;;;;6210638;23;20375;-81
2020/12/23 00:20:15;;;;;;;2.67;1.30;;;;;;;;;;6211012;23;20025;-82
2020/12/23 00:22:41;;;;;;;1.75;0.80;;;;;;;;;;6210856;23;20397;-82
2020/12/23 00:25:07;;;;;;;1.02;0.70;;;;;;;;;;6210638;23;20016;-82
2020/12/23 00:27:34;;;;;;;1.50;0.45;;;;;;;;;;6211315;23;20016;-82
2020/12/23 00:30:00;;;;;;;1.23;0.70;;;;;;;;;;6210605;23;20017;-82
2020/12/23 00:32:28;;;;;;;1.48;0.70;;;;;;;;;;6210523;23;20073;-82
2020/12/23 00:34:54;;;;;;;2.42;0.50;;;;;;;;;;6210735;23;20017;-82
2020/12/23 00:37:20;;;;;;;1.38;0.80;;;;;;;;;;6209771;23;20021;-82
2020/12/23 00:39:46;;;;;;;1.70;0.60;;;;;;;;;;6210327;23;20027;-81
2020/12/23 00:42:12;;;;;;;1.42;0.70;;;;;;;;;;6210423;23;20329;-82
2020/12/23 00:44:39;;;;;;;1.45;0.70;;;;;;;;;;6210945;23;20453;-82
2020/12/23 00:47:05;;;;;;;1.95;0.70;;;;;;;;;;6211694;22;20452;-80
2020/12/23 00:49:31;;;;;;;0.77;0.40;;;;;;;;;;6217380;23;20088;-81
2020/12/23 00:51:57;;;;;;;1.65;0.60;;;;;;;;;;6219675;23;20017;-80
2020/12/23 00:54:22;;;;;;;2.17;0.50;;;;;;;;;;6220261;23;20079;-81
2020/12/23 00:56:48;;;;;;;2.00;0.60;;;;;;;;;;6220240;23;20074;-81
2020/12/23 00:59:14;;;;;;;0.85;0.52;;;;;;;;;;6217934;23;20024;-81
2020/12/23 01:01:41;;;;;;;1.42;0.55;;;;;;;;;;6220061;23;20382;-81
2020/12/23 01:04:07;;;;;;;1.17;0.40;;;;;;;;;;6216461;23;20016;-81
2020/12/23 01:06:34;;;;;;;1.08;0.60;;;;;;;;;;6217668;23;20023;-81
2020/12/23 01:09:00;;;;;;;1.10;0.50;;;;;;;;;;6218980;23;20299;-80
2020/12/23 01:11:26;;;;;;;0.75;0.50;;;;;;;;;;6219934;23;20073;-81
2020/12/23 01:13:52;;;;;;;1.50;0.60;;;;;;;;;;6219729;23;20017;-81
2020/12/23 01:16:22;;;;;;;0.57;0.40;;;;;;;;;;6219494;23;20031;-81
2020/12/23 01:18:49;;;;;;;1.00;0.50;;;;;;;;;;6219666;23;20329;-81
2020/12/23 01:21:15;;;;;;;0.47;0.40;;;;;;;;;;6218960;23;20441;-80
2020/12/23 01:23:42;;;;;;;51.53;47.40;;;;;;;;;;6219814;23;20020;-81
2020/12/23 01:26:08;;;;;;;45.13;42.30;;;;;;;;;;6221221;23;20025;-81
2020/12/23 01:28:34;;;;;;;34.22;31.63;;;;;;;;;;6194294;23;20025;-82
2020/12/23 01:31:00;;;;;;;3.15;2.95;;;;;;;;;;6221080;22;20024;-81
2020/12/23 01:33:26;;;;;;;1.50;1.40;;;;;;;;;;6220905;23;20024;-81
2020/12/23 01:35:53;;;;;;;1.48;1.00;;;;;;;;;;6220354;23;20099;-81
2020/12/23 01:38:18;;;;;;;2.50;1.40;;;;;;;;;;6220676;23;20021;-81
2020/12/23 01:40:44;;;;;;;1.55;1.20;;;;;;;;;;6219411;23;20023;-81
2020/12/23 01:43:11;;;;;;;4.72;4.30;;;;;;;;;;6219279;23;20012;-81
2020/12/23 01:45:37;;;;;;;2.28;1.48;;;;;;;;;;6193127;23;20016;-81
2020/12/23 01:48:17;;;;;;;2.03;1.88;;;;;;;;;;6191074;22;20027;-82
2020/12/23 01:50:43;;;;;;;1.90;1.30;;;;;;;;;;6211783;23;20020;-81
2020/12/23 01:53:10;;;;;;;0.88;0.80;;;;;;;;;;6212146;23;20024;-81
2020/12/23 01:55:36;;;;;;;1.75;1.45;;;;;;;;;;6210734;23;20013;-81
2020/12/23 01:58:03;;;;;;;3.25;3.05;;;;;;;;;;6211013;23;20349;-81
2020/12/23 02:00:29;;;;;;;1.35;1.10;;;;;;;;;;6211662;23;20339;-81
2020/12/23 04:09:29;;;;;;;1.42;0.32;;;;;;;;;;6151605;22;20545;-87
2020/12/23 04:11:55;;;;;;;1.00;0.40;;;;;;;;;;6152489;23;20029;-87
2020/12/23 04:14:21;;;;;;;1.08;0.52;;;;;;;;;;6151982;23;20445;-87
2020/12/23 04:16:47;;;;;;;0.68;0.43;;;;;;;;;;6152159;23;20026;-87
2020/12/23 04:19:13;;;;;;;1.45;0.65;;;;;;;;;;6151645;23;20115;-88
2020/12/23 04:21:39;;;;;;;0.90;0.50;;;;;;;;;;6152180;23;20220;-87
2020/12/23 04:24:06;;;;;;;0.55;0.40;;;;;;;;;;6151547;22;20017;-87
2020/12/23 04:26:33;;;;;;;0.75;0.40;;;;;;;;;;6151965;23;20018;-87
2020/12/23 04:28:59;;;;;;;0.68;0.40;;;;;;;;;;6151965;23;20040;-87
2020/12/23 04:31:25;;;;;;;1.23;0.57;;;;;;;;;;6152609;23;20021;-87
2020/12/23 04:33:51;;;;;;;1.58;0.50;;;;;;;;;;6151958;23;20083;-88
2020/12/23 04:36:17;;;;;;;1.33;0.60;;;;;;;;;;6152181;23;20105;-87
2020/12/23 04:38:43;;;;;;;0.95;0.40;;;;;;;;;;6152101;23;20442;-87
2020/12/23 04:41:09;;;;;;;1.85;0.55;;;;;;;;;;6151513;23;20475;-87
2020/12/23 04:43:37;;;;;;;0.47;0.38;;;;;;;;;;6151927;23;20029;-87
2020/12/23 04:46:03;;;;;;;1.42;0.55;;;;;;;;;;6151984;23;20341;-87
2020/12/23 04:48:32;;;;;;;1.60;0.50;;;;;;;;;;6151700;22;20068;-87
2020/12/23 04:51:03;;;;;;;0.73;0.38;;;;;;;;;;6151971;23;20022;-87
2020/12/23 04:53:29;;;;;;;0.45;0.30;;;;;;;;;;6151550;23;20040;-87
2020/12/23 04:55:56;;;;;;;0.60;0.20;;;;;;;;;;6151803;23;20607;-87
2020/12/23 04:58:23;;;;;;;1.48;0.47;;;;;;;;;;6151693;23;20071;-87
2020/12/23 05:00:50;;;;;;;1.00;0.50;;;;;;;;;;6150118;23;20025;-87
2020/12/23 05:03:16;;;;;;;1.00;0.50;;;;;;;;;;6157794;23;20021;-87
2020/12/23 05:05:44;;;;;;;0.88;0.50;;;;;;;;;;6180354;23;20028;-88
2020/12/23 05:08:10;;;;;;;0.60;0.40;;;;;;;;;;6180849;22;20021;-87
2020/12/23 05:10:37;;;;;;;0.43;0.32;;;;;;;;;;6181005;22;20025;-88
2020/12/23 05:13:06;;;;;;;0.57;0.40;;;;;;;;;;6181150;22;20021;-87
2020/12/23 05:15:32;;;;;;;0.93;0.40;;;;;;;;;;6181017;23;20019;-87
2020/12/23 05:18:00;;;;;;;1.88;0.32;;;;;;;;;;6181111;23;20020;-87
2020/12/23 05:20:26;;;;;;;0.75;0.43;;;;;;;;;;6180438;22;20089;-87
2020/12/23 05:22:53;;;;;;;1.30;0.40;;;;;;;;;;6180870;23;20013;-87
2020/12/23 05:25:19;;;;;;;0.75;0.40;;;;;;;;;;6180985;23;20037;-87
2020/12/23 05:27:48;;;;;;;2.35;0.68;;;;;;;;;;6180944;23;20017;-87
2020/12/23 05:30:14;;;;;;;0.95;0.60;;;;;;;;;;6180873;23;20500;-87
2020/12/23 05:32:41;;;;;;;1.10;0.40;;;;;;;;;;6180776;22;20356;-87
2020/12/23 05:35:08;;;;;;;1999.90;999.90;;;;;;;;;;6182479;22;20021;-87
2020/12/23 05:37:34;;;;;;;1597.35;775.88;;;;;;;;;;6182319;23;20021;-87
2020/12/23 05:40:00;;;;;;;344.48;123.72;;;;;;;;;;6182221;23;20032;-87
2020/12/23 05:42:27;;;;;;;1164.95;133.95;;;;;;;;;;6182470;23;20028;-88
2020/12/23 05:44:54;;;;;;;44.72;4.53;;;;;;;;;;6182118;22;20021;-88
2020/12/23 05:47:21;;;;;;;0.73;0.40;;;;;;;;;;6182753;23;20021;-88
2020/12/23 05:49:48;;;;;;;0.75;0.50;;;;;;;;;;6182445;23;20017;-88
2020/12/23 05:52:15;;;;;;;114.63;44.47;;;;;;;;;;6183040;23;20017;-87
2020/12/23 05:54:41;;;;;;;7.40;7.07;;;;;;;;;;6181990;23;20318;-88
2020/12/23 05:57:07;;;;;;;0.68;0.43;;;;;;;;;;6182642;23;20025;-87
2020/12/23 05:59:33;;;;;;;0.80;0.57;;;;;;;;;;6182103;23;20021;-88
2020/12/23 06:02:00;;;;;;;33.63;20.00;;;;;;;;;;6181997;23;20017;-87
2020/12/23 06:04:28;;;;;;;62.83;59.10;;;;;;;;;;6182066;23;20021;-88
2020/12/23 06:06:55;;;;;;;1.05;0.60;;;;;;;;;;6181680;23;20021;-87
2020/12/23 06:09:27;;;;;;;1.63;0.82;;;;;;;;;;6182134;23;20040;-87
2020/12/23 06:11:55;;;;;;;1.17;0.70;;;;;;;;;;6181927;22;20462;-88
2020/12/23 06:14:23;;;;;;;1999.90;999.90;;;;;;;;;;6181392;22;20043;-87
2020/12/23 06:16:50;;;;;;;82.78;56.83;;;;;;;;;;6182637;23;20337;-87
2020/12/23 06:19:25;;;;;;;62.45;8.25;;;;;;;;;;6181831;23;20018;-87
2020/12/23 06:21:53;;;;;;;4.10;3.90;;;;;;;;;;6181998;23;20020;-87
2020/12/23 06:24:19;;;;;;;2.88;0.82;;;;;;;;;;6181767;22;20357;-87
2020/12/23 06:26:47;;;;;;;37.53;34.67;;;;;;;;;;6181773;23;20021;-87
2020/12/23 06:29:14;;;;;;;1.30;0.70;;;;;;;;;;6181581;23;20021;-88
2020/12/23 06:31:42;;;;;;;0.98;0.68;;;;;;;;;;6182212;22;20050;-88
2020/12/23 06:34:13;;;;;;;1.40;0.77;;;;;;;;;;6181652;22;20028;-87
2020/12/23 06:36:39;;;;;;;1.10;0.60;;;;;;;;;;6182137;22;20044;-88
2020/12/23 06:39:22;;;;;;;1.40;1.05;;;;;;;;;;6182452;23;20454;-87
2020/12/23 06:41:49;;;;;;;2.28;0.98;;;;;;;;;;6181907;23;20017;-87
2020/12/23 06:44:15;;;;;;;3.97;2.15;;;;;;;;;;6182039;23;20618;-86
2020/12/23 06:47:07;;;;;;;3.30;1.48;;;;;;;;;;6181388;23;20750;-87
2020/12/23 06:49:37;;;;;;;6.25;5.85;;;;;;;;;;6181650;22;20035;-87
2020/12/23 06:52:31;;;;;;;2.38;0.80;;;;;;;;;;6181959;23;20735;-87
2020/12/23 06:55:00;;;;;;;3.13;1.42;;;;;;;;;;6181079;22;20109;-87
2020/12/23 06:58:03;;;;;;;3.00;1.52;;;;;;;;;;6182271;23;20094;-87
2020/12/23 07:00:37;;;;;;;4.53;2.10;;;;;;;;;;6181589;23;20025;-87
2020/12/23 07:03:05;;;;;;;4.60;1.50;;;;;;;;;;6181675;23;20028;-87
2020/12/23 07:05:36;;;;;;;3.17;1.45;;;;;;;;;;6181444;23;20028;-87
2020/12/23 07:08:03;;;;;;;6.55;3.40;;;;;;;;;;6181361;23;20021;-87
2020/12/23 07:10:31;;;;;;;6.10;3.00;;;;;;;;;;6181664;22;20054;-87
2020/12/23 07:12:58;;;;;;;4.63;2.10;;;;;;;;;;6181350;23;20028;-87
2020/12/23 07:15:25;;;;;;;4.22;2.45;;;;;;;;;;6181645;23;20027;-87
2020/12/23 07:17:53;;;;;;;5.40;3.38;;;;;;;;;;6180967;22;20021;-87
2020/12/23 07:20:21;;;;;;;5.22;2.00;;;;;;;;;;6180878;22;20021;-86
2020/12/23 07:22:48;;;;;;;2.72;1.10;;;;;;;;;;6180336;22;20048;-87
2020/12/23 07:25:17;;;;;;;4.93;2.45;;;;;;;;;;6181227;23;20021;-87
2020/12/23 07:27:45;;;;;;;8.20;3.88;;;;;;;;;;6181624;23;20460;-86
2020/12/23 07:30:11;;;;;;;2.83;1.50;;;;;;;;;;6181384;23;20028;-87
2020/12/23 07:32:37;;;;;;;4.63;2.60;;;;;;;;;;6181354;23;20017;-87
2020/12/23 07:35:05;;;;;;;1.42;0.93;;;;;;;;;;6181356;22;20631;-87
2020/12/23 07:37:33;;;;;;;1.98;1.10;;;;;;;;;;6181251;22;20024;-87
2020/12/23 07:39:59;;;;;;;4.97;2.40;;;;;;;;;;6180400;22;20044;-87
2020/12/23 07:42:25;;;;;;;2.88;1.77;;;;;;;;;;6180852;23;20021;-86
2020/12/23 07:44:52;;;;;;;7.18;3.45;;;;;;;;;;6180917;23;20056;-87
2020/12/23 07:47:22;;;;;;;5.47;2.05;;;;;;;;;;6181040;22;20022;-87
2020/12/23 07:49:58;;;;;;;10.68;9.73;;;;;;;;;;6180625;22;20025;-87
2020/12/23 07:52:26;;;;;;;6.60;3.28;;;;;;;;;;6179624;23;20032;-87
2020/12/23 07:54:52;;;;;;;4.25;2.30;;;;;;;;;;6179706;23;20052;-86
2020/12/23 07:57:29;;;;;;;4.07;2.63;;;;;;;;;;6179929;23;20350;-87
2020/12/23 08:00:01;;;;;;;4.60;2.42;;;;;;;;;;6181066;22;20021;-87
2020/12/23 08:02:27;;;;;;;7.88;4.10;;;;;;;;;;6180462;23;20459;-87
2020/12/23 08:04:53;;;;;;;5.47;3.22;;;;;;;;;;6178237;22;20033;-87
2020/12/23 08:07:22;;;;;;;4.72;2.38;;;;;;;;;;6178544;23;20028;-87
2020/12/23 08:09:48;;;;;;;6.22;3.20;;;;;;;;;;6178120;22;20354;-87
2020/12/23 08:12:16;;;;;;;4.60;2.38;;;;;;;;;;6173473;22;20017;-87
2020/12/23 08:14:42;;;;;;;2.83;1.40;;;;;;;;;;6174226;23;20032;-86
2020/12/23 08:17:08;;;;;;;2.83;1.25;;;;;;;;;;6179955;23;20342;-87
2020/12/23 08:19:34;;;;;;;5.55;1.58;;;;;;;;;;6182268;23;20027;-87
2020/12/23 08:22:09;;;;;;;2.97;1.67;;;;;;;;;;6180852;22;20028;-88
2020/12/23 08:24:35;;;;;;;1.65;0.80;;;;;;;;;;6181607;22;20076;-89
2020/12/23 08:27:03;;;;;;;1.17;0.70;;;;;;;;;;6181560;23;20021;-89
2020/12/23 08:29:30;;;;;;;0.85;0.45;;;;;;;;;;6181858;23;20096;-87
2020/12/23 08:31:57;;;;;;;2.42;1.20;;;;;;;;;;6181472;22;20031;-89
2020/12/23 08:34:24;;;;;;;5.18;1.23;;;;;;;;;;6181473;23;20017;-89
2020/12/23 08:36:52;;;;;;;1.80;1.00;;;;;;;;;;6181627;23;20401;-88
2020/12/23 08:39:23;;;;;;;2.50;0.88;;;;;;;;;;6181834;22;20044;-88
2020/12/23 08:41:49;;;;;;;1.15;0.63;;;;;;;;;;6181344;23;20337;-89
2020/12/23 08:44:21;;;;;;;0.77;0.50;;;;;;;;;;6180765;23;20021;-86
2020/12/23 08:46:47;;;;;;;2.72;0.73;;;;;;;;;;6181490;22;20100;-86
2020/12/23 08:49:14;;;;;;;0.93;0.40;;;;;;;;;;6181106;22;20033;-88
2020/12/23 08:51:40;;;;;;;0.98;0.73;;;;;;;;;;6181912;23;20445;-88
2020/12/23 08:54:14;;;;;;;0.65;0.45;;;;;;;;;;6181209;23;20028;-88
2020/12/23 08:56:46;;;;;;;0.98;0.50;;;;;;;;;;6181100;22;20029;-87
2020/12/23 08:59:12;;;;;;;1.45;0.90;;;;;;;;;;6180963;23;20315;-88
2020/12/23 09:01:39;;;;;;;3.08;0.60;;;;;;;;;;6180955;23;20100;-86
2020/12/23 09:04:07;;;;;;;0.63;0.40;;;;;;;;;;6180556;22;20021;-88
2020/12/23 09:06:34;;;;;;;1.33;0.80;;;;;;;;;;6181505;22;20439;-86
2020/12/23 09:09:10;;;;;;;1.15;0.57;;;;;;;;;;6181964;22;20172;-88
2020/12/23 09:11:41;;;;;;;1.35;0.60;;;;;;;;;;6182855;22;20021;-88
2020/12/23 09:14:20;;;;;;;1.73;0.70;;;;;;;;;;6182972;22;20028;-87
2020/12/23 09:17:08;;;;;;;2.00;0.80;;;;;;;;;;6181907;23;20032;-86
2020/12/23 09:19:44;;;;;;;1.75;0.50;;;;;;;;;;6183497;22;20029;-87
2020/12/23 09:22:12;;;;;;;1.77;0.60;;;;;;;;;;6182461;23;20029;-86
2020/12/23 09:24:38;;;;;;;1.48;0.70;;;;;;;;;;6181730;23;20365;-87
2020/12/23 09:27:20;;;;;;;1.15;0.60;;;;;;;;;;6182387;23;20349;-86
2020/12/23 09:29:46;;;;;;;0.77;0.50;;;;;;;;;;6182477;23;20349;-86
2020/12/23 09:32:13;;;;;;;2.42;0.88;;;;;;;;;;6182463;22;20027;-86
2020/12/23 09:34:39;;;;;;;0.82;0.40;;;;;;;;;;6182219;23;20047;-86
2020/12/23 09:37:05;;;;;;;2.38;0.85;;;;;;;;;;6181535;22;20020;-87
2020/12/23 09:39:34;;;;;;;1.67;0.95;;;;;;;;;;6182081;22;20096;-87
2020/12/23 09:42:01;;;;;;;4.32;1.00;;;;;;;;;;6180092;22;20029;-87
2020/12/23 09:44:27;;;;;;;2.80;1.33;;;;;;;;;;6177893;23;20032;-87
2020/12/23 09:46:53;;;;;;;3.08;1.40;;;;;;;;;;6181309;22;20017;-87
2020/12/23 09:49:20;;;;;;;1.58;0.90;;;;;;;;;;6180796;23;20025;-87
2020/12/23 09:51:47;;;;;;;3.22;1.02;;;;;;;;;;6181777;23;20025;-87
2020/12/23 09:54:13;;;;;;;1.67;0.93;;;;;;;;;;6181273;23;20048;-87
2020/12/23 09:56:49;;;;;;;1.00;0.65;;;;;;;;;;6180948;22;20017;-87
2020/12/23 09:59:15;;;;;;;3.63;1.70;;;;;;;;;;6180995;22;20071;-87
2020/12/23 10:01:41;;;;;;;1.88;1.20;;;;;;;;;;6182200;22;20028;-87
2020/12/23 10:04:07;;;;;;;1.48;1.00;;;;;;;;;;6182072;22;20088;-87
2020/12/23 10:06:34;;;;;;;2.38;0.90;;;;;;;;;;6181808;23;20383;-87
2020/12/23 10:09:01;;;;;;;3.63;1.35;;;;;;;;;;6181584;23;20326;-87
2020/12/23 10:11:27;;;;;;;2.88;1.27;;;;;;;;;;6180939;22;20013;-87
2020/12/23 10:13:53;;;;;;;3.15;0.98;;;;;;;;;;6181370;22;20567;-87
2020/12/23 10:16:19;;;;;;;1.92;0.95;;;;;;;;;;6181216;23;20025;-87
2020/12/23 10:18:45;;;;;;;2.30;0.90;;;;;;;;;;6181280;23;20024;-87
2020/12/23 10:21:11;;;;;;;1.83;0.80;;;;;;;;;;6181432;23;20025;-87
2020/12/23 10:23:38;;;;;;;1.90;0.80;;;;;;;;;;6182268;23;20044;-87
2020/12/23 10:26:04;;;;;;;2.53;0.82;;;;;;;;;;6181834;22;20036;-87
2020/12/23 10:28:30;;;;;;;5.00;1.00;;;;;;;;;;6182363;22;20091;-87
2020/12/23 10:30:56;;;;;;;2.90;0.90;;;;;;;;;;6182115;23;20119;-86
2020/12/23 10:33:22;;;;;;;1.27;0.73;;;;;;;;;;6181953;22;20028;-87
2020/12/23 10:35:48;;;;;;;2.60;0.65;;;;;;;;;;6182423;23;20035;-87
2020/12/23 10:38:14;;;;;;;2.17;0.80;;;;;;;;;;6184493;23;20021;-87
2020/12/23 10:40:41;;;;;;;1.75;0.60;;;;;;;;;;6190527;23;20021;-87
2020/12/23 10:43:07;;;;;;;1.42;0.77;;;;;;;;;;6184314;22;20068;-86
2020/12/23 10:45:33;;;;;;;0.82;0.50;;;;;;;;;;6181668;22;20021;-87
2020/12/23 10:47:59;;;;;;;1.40;0.60;;;;;;;;;;6182244;22;20067;-87
2020/12/23 10:50:25;;;;;;;6.72;3.42;;;;;;;;;;6181314;23;20050;-86
2020/12/23 10:52:51;;;;;;;5.18;2.40;;;;;;;;;;6181513;23;20032;-87
2020/12/23 10:55:17;;;;;;;5.82;2.08;;;;;;;;;;6181224;23;20021;-86
2020/12/23 10:57:43;;;;;;;4.90;2.30;;;;;;;;;;6181240;23;20048;-86
2020/12/23 11:00:09;;;;;;;5.25;2.38;;;;;;;;;;6181244;23;20021;-86
2020/12/23 11:02:35;;;;;;;4.72;1.73;;;;;;;;;;6181395;23;20102;-86
2020/12/23 11:05:01;;;;;;;2.35;1.15;;;;;;;;;;6181022;23;20032;-86
2020/12/23 11:07:27;;;;;;;1.85;0.85;;;;;;;;;;6181386;23;20041;-86
2020/12/23 11:09:53;;;;;;;2.45;0.70;;;;;;;;;;6181682;23;20398;-86
2020/12/23 11:12:19;;;;;;;3.38;1.38;;;;;;;;;;6181599;23;20082;-86
2020/12/23 11:14:47;;;;;;;4.65;2.60;;;;;;;;;;6182101;23;20029;-86
2020/12/23 11:17:13;;;;;;;5.70;2.00;;;;;;;;;;6182089;23;20025;-87
2020/12/23 11:19:39;;;;;;;4.97;2.67;;;;;;;;;;6181946;22;20071;-87
2020/12/23 11:22:05;;;;;;;7.32;4.47;;;;;;;;;;6181957;22;20021;-87
2020/12/23 11:24:31;;;;;;;5.18;2.70;;;;;;;;;;6181305;23;20049;-87
2020/12/23 11:26:59;;;;;;;7.63;4.47;;;;;;;;;;6181667;23;20042;-86
2020/12/23 11:29:25;;;;;;;6.05;3.58;;;;;;;;;;6182092;22;20071;-86
2020/12/23 11:31:52;;;;;;;5.43;2.60;;;;;;;;;;6181810;23;20083;-86
2020/12/23 11:34:18;;;;;;;2.60;1.60;;;;;;;;;;6181732;23;20326;-86
2020/12/23 11:36:44;;;;;;;1.83;0.80;;;;;;;;;;6181640;23;20345;-86
2020/12/23 11:39:10;;;;;;;4.30;1.55;;;;;;;;;;6181981;23;20032;-87
2020/12/23 11:41:36;;;;;;;3.70;1.60;;;;;;;;;;6180876;22;20017;-87
2020/12/23 11:44:02;;;;;;;2.20;1.42;;;;;;;;;;6174395;23;20021;-87
2020/12/23 11:46:31;;;;;;;3.20;1.83;;;;;;;;;;6174484;23;20021;-87
2020/12/23 11:48:58;;;;;;;5.55;3.20;;;;;;;;;;6179357;23;20070;-87
2020/12/23 11:51:24;;;;;;;11.25;6.03;;;;;;;;;;6181655;22;20029;-87
2020/12/23 11:53:51;;;;;;;3.75;1.50;;;;;;;;;;6181665;22;20032;-87
2020/12/23 11:56:17;;;;;;;3.22;1.60;;;;;;;;;;6181427;22;20044;-88
2020/12/23 11:58:43;;;;;;;7.55;4.82;;;;;;;;;;6181862;23;20017;-89
2020/12/23 12:01:09;;;;;;;5.72;3.05;;;;;;;;;;6181375;22;20021;-88
2020/12/23 12:03:35;;;;;;;4.75;2.17;;;;;;;;;;6181485;23;20047;-89
2020/12/23 12:06:02;;;;;;;2.33;1.20;;;;;;;;;;6181262;23;20021;-88
2020/12/23 12:08:29;;;;;;;1.38;0.80;;;;;;;;;;6179259;22;20025;-87
2020/12/23 12:10:56;;;;;;;1.85;0.98;;;;;;;;;;6178893;22;20025;-89
2020/12/23 12:13:22;;;;;;;3.15;1.00;;;;;;;;;;6180210;23;20044;-89
2020/12/23 12:15:48;;;;;;;1.33;0.90;;;;;;;;;;6181315;23;20021;-88
2020/12/23 12:18:14;;;;;;;3.15;1.10;;;;;;;;;;6180933;23;20017;-88
2020/12/23 12:20:40;;;;;;;1.35;0.90;;;;;;;;;;6181179;22;20025;-88
2020/12/23 12:23:08;;;;;;;1.30;0.80;;;;;;;;;;6180880;23;20017;-89
2020/12/23 12:25:34;;;;;;;1.48;0.90;;;;;;;;;;6178355;23;20021;-87
2020/12/23 12:28:02;;;;;;;7.00;2.30;;;;;;;;;;6177963;22;20075;-89
2020/12/23 12:30:28;;;;;;;1.02;0.65;;;;;;;;;;6176897;22;20040;-89
2020/12/23 12:32:54;;;;;;;0.95;0.68;;;;;;;;;;6180873;22;20025;-89
2020/12/23 12:35:20;;;;;;;2.28;0.90;;;;;;;;;;6181315;23;20025;-89
2020/12/23 12:37:46;;;;;;;1.92;0.90;;;;;;;;;;6175973;23;20720;-89
2020/12/23 12:40:13;;;;;;;1.88;1.23;;;;;;;;;;6178209;23;20095;-89
2020/12/23 12:42:39;;;;;;;3.87;1.83;;;;;;;;;;6180190;22;20028;-89
2020/12/23 12:45:05;;;;;;;6.22;2.47;;;;;;;;;;6175521;22;20473;-88
2020/12/23 12:47:31;;;;;;;2.25;1.00;;;;;;;;;;6172977;23;20522;-88
2020/12/23 12:49:57;;;;;;;3.55;1.30;;;;;;;;;;6174547;23;20057;-87
2020/12/23 12:52:22;;;;;;;7.15;2.88;;;;;;;;;;6173990;23;20480;-86
2020/12/23 12:54:48;;;;;;;6.25;2.35;;;;;;;;;;6174064;22;20359;-89
2020/12/23 12:57:15;;;;;;;10.73;4.38;;;;;;;;;;6174676;23;20108;-88
2020/12/23 12:59:41;;;;;;;3.05;1.45;;;;;;;;;;6170756;22;20021;-88
2020/12/23 13:02:08;;;;;;;5.15;1.60;;;;;;;;;;6172618;23;20106;-89
2020/12/23 13:04:34;;;;;;;5.28;2.05;;;;;;;;;;6179578;23;20028;-88
2020/12/23 13:07:00;;;;;;;3.95;2.08;;;;;;;;;;6180881;23;20733;-88
2020/12/23 13:09:26;;;;;;;3.22;1.80;;;;;;;;;;6180540;22;20074;-89
2020/12/23 13:11:58;;;;;;;4.00;1.73;;;;;;;;;;6181028;23;20033;-88
2020/12/23 13:14:25;;;;;;;3.85;2.15;;;;;;;;;;6179384;23;20017;-88
2020/12/23 13:16:51;;;;;;;4.07;1.95;;;;;;;;;;6180491;22;20044;-88
2020/12/23 13:19:17;;;;;;;2.38;1.27;;;;;;;;;;6179208;22;20025;-88
2020/12/23 13:21:43;;;;;;;3.40;1.60;;;;;;;;;;6177964;23;20023;-88
2020/12/23 13:24:10;;;;;;;4.70;2.50;;;;;;;;;;6179217;23;20108;-88
2020/12/23 13:26:36;;;;;;;3.97;1.90;;;;;;;;;;6178121;23;20021;-86
2020/12/23 13:29:02;;;;;;;6.75;3.22;;;;;;;;;;6177047;23;20050;-88
2020/12/23 13:31:29;;;;;;;5.65;2.63;;;;;;;;;;6178297;22;20025;-88
2020/12/23 13:33:57;;;;;;;3.15;1.83;;;;;;;;;;6173178;23;20025;-88
2020/12/23 13:36:24;;;;;;;4.45;2.05;;;;;;;;;;6173384;22;20063;-88
2020/12/23 13:38:50;;;;;;;4.97;2.20;;;;;;;;;;6173211;23;20353;-88
2020/12/23 13:41:16;;;;;;;7.28;3.10;;;;;;;;;;6173350;23;20457;-88
2020/12/23 13:43:42;;;;;;;5.57;2.53;;;;;;;;;;6176855;23;20025;-88
2020/12/23 13:46:12;;;;;;;8.13;3.97;;;;;;;;;;6178154;23;20021;-88
2020/12/23 13:48:39;;;;;;;8.38;3.85;;;;;;;;;;6179008;23;20029;-88
2020/12/23 13:51:05;;;;;;;11.10;4.47;;;;;;;;;;6179548;23;20028;-88
2020/12/23 13:53:31;;;;;;;6.55;3.47;;;;;;;;;;6179937;23;20029;-88
2020/12/23 13:55:57;;;;;;;7.00;2.90;;;;;;;;;;6181160;23;20044;-88
2020/12/23 13:58:23;;;;;;;6.82;3.47;;;;;;;;;;6184466;23;20052;-88
2020/12/23 14:00:49;;;;;;;9.07;3.72;;;;;;;;;;6183479;23;20025;-88
2020/12/23 14:03:15;;;;;;;6.70;3.17;;;;;;;;;;6181022;23;20120;-86
2020/12/23 14:05:43;;;;;;;6.10;2.65;;;;;;;;;;6181417;23;20078;-86
2020/12/23 14:08:09;;;;;;;5.45;3.15;;;;;;;;;;6181154;23;20021;-88
2020/12/23 14:10:35;;;;;;;6.97;4.40;;;;;;;;;;6181566;23;20345;-88
2020/12/23 14:13:01;;;;;;;5.82;3.10;;;;;;;;;;6180966;22;20096;-88
2020/12/23 14:15:27;;;;;;;4.22;2.85;;;;;;;;;;6181865;23;20032;-88
2020/12/23 14:17:53;;;;;;;4.95;2.70;;;;;;;;;;6181139;23;20021;-88
2020/12/23 14:20:19;;;;;;;4.28;1.98;;;;;;;;;;6182153;22;20047;-88
2020/12/23 14:22:47;;;;;;;4.78;2.42;;;;;;;;;;6182088;23;20088;-87
2020/12/23 14:25:13;;;;;;;2.55;1.67;;;;;;;;;;6178940;23;20028;-88
2020/12/23 14:27:41;;;;;;;2.78;1.70;;;;;;;;;;6175022;22;20056;-88
2020/12/23 14:30:07;;;;;;;4.82;2.28;;;;;;;;;;6173248;23;20044;-88
2020/12/23 14:32:33;;;;;;;4.10;1.63;;;;;;;;;;6175509;23;20025;-88
2020/12/23 14:34:59;;;;;;;2.45;1.48;;;;;;;;;;6181445;23;20021;-88
2020/12/23 14:37:25;;;;;;;2.53;1.17;;;;;;;;;;6181691;23;20025;-88
2020/12/23 14:39:52;;;;;;;2.40;1.00;;;;;;;;;;6181491;23;20104;-88
2020/12/23 14:42:19;;;;;;;2.00;0.98;;;;;;;;;;6185101;23;20025;-87
2020/12/23 14:47:35;;;;;;;3.15;1.02;;;;;;;;;;6137180;23;20026;-88
2020/12/23 14:50:12;;;;;;;3.97;2.08;;;;;;;;;;6158627;23;20024;-87
2020/12/23 14:52:44;;;;;;;4.68;2.50;;;;;;;;;;6158689;23;20029;-87
2020/12/23 14:55:18;;;;;;;3.90;2.42;;;;;;;;;;6144967;23;20025;-86
2020/12/23 14:57:44;;;;;;;3.25;2.17;;;;;;;;;;6151495;23;20040;-87
2020/12/23 15:00:11;;;;;;;2.88;1.48;;;;;;;;;;6151656;23;20026;-88
2020/12/23 15:02:37;;;;;;;2.17;1.30;;;;;;;;;;6151258;23;20120;-88
2020/12/23 15:05:03;;;;;;;2.58;1.35;;;;;;;;;;6150610;23;20112;-88
2020/12/23 15:07:29;;;;;;;3.17;1.48;;;;;;;;;;6149810;23;20090;-88
2020/12/23 15:09:55;;;;;;;4.55;1.83;;;;;;;;;;6150504;23;20100;-88
2020/12/23 15:12:22;;;;;;;4.40;2.50;;;;;;;;;;6149334;22;20048;-88
2020/12/23 15:14:49;;;;;;;2.92;1.77;;;;;;;;;;6150311;23;20462;-88
2020/12/23 15:17:15;;;;;;;4.75;3.05;;;;;;;;;;6150606;23;20033;-88
2020/12/23 15:19:41;;;;;;;2.60;1.48;;;;;;;;;;6150557;23;20628;-88
2020/12/23 15:22:07;;;;;;;5.65;3.20;;;;;;;;;;6150133;23;20064;-87
2020/12/23 15:24:33;;;;;;;3.55;1.98;;;;;;;;;;6144340;23;20080;-89
2020/12/23 15:27:02;;;;;;;4.55;2.78;;;;;;;;;;6144917;23;20028;-88
2020/12/23 15:29:29;;;;;;;3.17;1.90;;;;;;;;;;6148427;23;20025;-89
2020/12/23 15:31:55;;;;;;;6.72;3.40;;;;;;;;;;6150169;23;20604;-87
2020/12/23 15:34:21;;;;;;;7.45;4.43;;;;;;;;;;6150798;23;20346;-89
2020/12/23 15:36:47;;;;;;;10.50;6.65;;;;;;;;;;6149778;23;20021;-88
2020/12/23 15:39:13;;;;;;;6.25;3.75;;;;;;;;;;6149827;23;20021;-88
2020/12/23 15:41:39;;;;;;;4.80;3.08;;;;;;;;;;6152897;23;20049;-87
2020/12/23 15:44:05;;;;;;;6.72;3.90;;;;;;;;;;6150266;23;20021;-89
2020/12/23 15:46:32;;;;;;;5.35;3.83;;;;;;;;;;6150013;23;20028;-88
2020/12/23 15:48:58;;;;;;;4.18;2.75;;;;;;;;;;6150923;23;20076;-88
2020/12/23 15:51:24;;;;;;;9.07;8.18;;;;;;;;;;6152821;23;20104;-87
2020/12/23 15:53:50;;;;;;;14.93;11.80;;;;;;;;;;6147323;23;20036;-87
2020/12/23 15:56:16;;;;;;;5.63;2.55;;;;;;;;;;6144547;23;20237;-87
2020/12/23 15:58:42;;;;;;;3.92;2.20;;;;;;;;;;6144788;23;20362;-86
2020/12/23 16:01:11;;;;;;;3.28;2.10;;;;;;;;;;6144322;23;20060;-87
2020/12/23 16:03:38;;;;;;;8.52;4.93;;;;;;;;;;6143376;23;20386;-86
2020/12/23 16:06:04;;;;;;;6.97;4.78;;;;;;;;;;6139579;23;20494;-87
2020/12/23 16:08:30;;;;;;;9.50;6.60;;;;;;;;;;6144142;23;20028;-87
2020/12/23 16:10:56;;;;;;;15.70;11.68;;;;;;;;;;6145964;23;20698;-87
2020/12/23 16:13:22;;;;;;;8.35;5.88;;;;;;;;;;6151534;23;20018;-88
2020/12/23 16:15:48;;;;;;;12.90;9.52;;;;;;;;;;6148423;23;20527;-88
2020/12/23 16:18:15;;;;;;;5.55;3.10;;;;;;;;;;6151322;23;20021;-89
2020/12/23 16:20:42;;;;;;;8.65;5.32;;;;;;;;;;6151043;23;20014;-87
2020/12/23 16:23:08;;;;;;;4.32;2.83;;;;;;;;;;6145837;23;20022;-87
2020/12/23 16:25:35;;;;;;;5.07;2.85;;;;;;;;;;6148321;23;20029;-88
2020/12/23 16:28:03;;;;;;;3.83;2.30;;;;;;;;;;6151665;23;20357;-88
2020/12/23 16:30:29;;;;;;;5.93;3.50;;;;;;;;;;6151248;23;20025;-87
2020/12/23 16:32:55;;;;;;;4.82;2.85;;;;;;;;;;6151347;23;20018;-88
2020/12/23 16:35:21;;;;;;;3.13;2.20;;;;;;;;;;6150797;23;20378;-88
2020/12/23 16:37:48;;;;;;;4.22;3.10;;;;;;;;;;6151321;23;20095;-88
2020/12/23 16:40:14;;;;;;;5.18;3.50;;;;;;;;;;6150712;23;20024;-88
2020/12/23 16:42:40;;;;;;;10.45;5.10;;;;;;;;;;6151167;23;20025;-88
2020/12/23 16:45:06;;;;;;;5.45;3.45;;;;;;;;;;6150738;22;20025;-88
2020/12/23 16:47:33;;;;;;;4.70;2.63;;;;;;;;;;6148721;23;20014;-88
2020/12/23 16:50:00;;;;;;;7.68;4.75;;;;;;;;;;6125082;23;20025;-88